Time;durP1;ratioP1;P1;durP2;ratioP2;P2;SDS_P1;SDS_P2;PMS_P1;PMS_P2;Temp;Humidity;BMP_temperature;BMP_pressure;BME280_temperature;BME280_humidity;BME280_pressure;Samples;Min_cycle;Max_cycle;Signal;HPM_P1;HPM_P2
2022/01/05 00:00:48;;;;;;;40.60;25.35;;;;;;;6.62;100.00;97388.50;5135196;27;20039;-73
2022/01/05 00:03:16;;;;;;;37.75;23.30;;;;;;;6.64;100.00;97399.97;5137630;27;20054;-75
2022/01/05 00:05:43;;;;;;;38.10;23.55;;;;;;;6.65;100.00;97396.31;5137860;27;20108;-73
2022/01/05 00:08:12;;;;;;;34.90;21.42;;;;;;;6.62;100.00;97399.25;5137814;27;20046;-74
2022/01/05 00:10:41;;;;;;;33.22;20.05;;;;;;;6.67;100.00;97415.81;5137627;27;20104;-76
2022/01/05 00:13:09;;;;;;;29.48;19.92;;;;;;;6.67;100.00;97421.19;5137661;27;20043;-73
2022/01/05 00:15:36;;;;;;;31.55;18.90;;;;;;;6.65;100.00;97433.03;5137687;27;20047;-74
2022/01/05 00:18:04;;;;;;;28.95;17.65;;;;;;;6.68;100.00;97443.50;5137162;27;20039;-84
2022/01/05 00:20:31;;;;;;;28.95;17.25;;;;;;;6.62;100.00;97442.16;5137517;27;20108;-74
2022/01/05 00:22:59;;;;;;;30.80;16.95;;;;;;;6.66;100.00;97450.84;5137198;27;20047;-74
2022/01/05 00:25:26;;;;;;;27.00;16.20;;;;;;;6.64;100.00;97458.16;5136807;27;20132;-73
2022/01/05 00:27:55;;;;;;;27.00;15.57;;;;;;;6.61;100.00;97459.22;5127881;27;20047;-77
2022/01/05 00:30:23;;;;;;;23.60;14.27;;;;;;;6.62;100.00;97458.25;5135610;27;20047;-76
2022/01/05 00:32:50;;;;;;;24.13;14.98;;;;;;;6.56;100.00;97449.84;5136978;27;20047;-85
2022/01/05 00:35:18;;;;;;;25.40;14.55;;;;;;;6.51;100.00;97460.94;5137002;27;20074;-81
2022/01/05 00:37:45;;;;;;;24.20;13.95;;;;;;;6.48;100.00;97459.31;5137058;27;20050;-73
2022/01/05 00:40:13;;;;;;;25.77;14.68;;;;;;;6.58;100.00;97462.16;5137220;27;20043;-74
2022/01/05 00:42:40;;;;;;;26.60;15.05;;;;;;;6.56;100.00;97472.16;5136904;27;20050;-73
2022/01/05 00:45:10;;;;;;;26.85;14.57;;;;;;;6.57;100.00;97484.59;5137258;27;20050;-73
2022/01/05 00:47:37;;;;;;;26.15;14.20;;;;;;;6.58;100.00;97497.03;5136580;27;20047;-73
2022/01/05 00:50:06;;;;;;;21.65;12.52;;;;;;;6.59;100.00;97509.47;5137025;27;20039;-76
2022/01/05 00:52:33;;;;;;;21.80;12.05;;;;;;;6.56;100.00;97520.44;5137035;27;20043;-74
2022/01/05 00:55:01;;;;;;;20.27;11.73;;;;;;;6.58;100.00;97518.47;5136825;27;20047;-80
2022/01/05 00:57:28;;;;;;;20.48;11.27;;;;;;;6.58;100.00;97529.22;5136910;27;20047;-76
2022/01/05 00:59:56;;;;;;;20.10;11.82;;;;;;;6.48;100.00;97534.41;5136823;27;20043;-73
2022/01/05 01:02:25;;;;;;;19.63;10.77;;;;;;;6.47;100.00;97550.63;5136435;27;20043;-73
2022/01/05 01:04:52;;;;;;;30.95;14.88;;;;;;;6.49;100.00;97546.00;5136573;27;20117;-73
2022/01/05 01:07:20;;;;;;;29.50;13.63;;;;;;;6.47;100.00;97553.31;5136623;27;20048;-82
2022/01/05 01:09:47;;;;;;;25.73;12.63;;;;;;;6.42;100.00;97568.91;5136522;27;20401;-73
2022/01/05 01:12:15;;;;;;;26.13;11.40;;;;;;;6.44;100.00;97566.97;5136071;27;20043;-73
2022/01/05 01:14:42;;;;;;;29.35;13.32;;;;;;;6.43;100.00;97579.50;5136436;27;20039;-73
2022/01/05 01:17:10;;;;;;;26.05;12.60;;;;;;;6.37;100.00;97585.34;5136359;27;20039;-86
2022/01/05 01:19:39;;;;;;;25.85;12.02;;;;;;;6.39;100.00;97588.75;5136406;27;20141;-74
2022/01/05 01:22:06;;;;;;;32.95;14.77;;;;;;;6.30;100.00;97584.94;5136250;27;20047;-73
2022/01/05 01:24:34;;;;;;;20.17;10.48;;;;;;;6.28;100.00;97589.53;5136132;27;20481;-76
2022/01/05 01:27:02;;;;;;;23.90;10.77;;;;;;;6.17;100.00;97581.47;5136062;27;20398;-74
2022/01/05 01:29:29;;;;;;;21.42;9.93;;;;;;;6.19;100.00;97588.44;5135946;27;20493;-76
2022/01/05 01:31:57;;;;;;;25.58;16.25;;;;;;;6.18;100.00;97610.84;5135779;27;20482;-76
2022/01/05 01:34:24;;;;;;;40.70;25.20;;;;;;;6.19;100.00;97625.09;5136151;27;20059;-74
2022/01/05 01:36:53;;;;;;;63.45;29.55;;;;;;;6.06;100.00;97633.16;5136725;27;20053;-75
2022/01/05 01:39:21;;;;;;;61.90;20.10;;;;;;;6.12;100.00;97634.56;5135920;27;20490;-84
2022/01/05 01:41:48;;;;;;;40.80;14.68;;;;;;;6.13;100.00;97636.25;5135908;27;20050;-73
2022/01/05 01:44:17;;;;;;;16.10;7.88;;;;;;;6.16;100.00;97641.41;5135663;27;20043;-76
2022/01/05 01:46:45;;;;;;;13.93;6.55;;;;;;;6.04;100.00;97648.50;5135781;27;20039;-73
2022/01/05 01:49:12;;;;;;;13.13;6.38;;;;;;;6.05;100.00;97659.13;5135975;27;20050;-73
2022/01/05 01:51:40;;;;;;;13.75;7.18;;;;;;;6.04;100.00;97664.59;5135864;27;20043;-83
2022/01/05 01:54:09;;;;;;;13.63;7.05;;;;;;;5.94;100.00;97669.75;5135720;27;20043;-80
2022/01/05 01:56:38;;;;;;;13.48;7.00;;;;;;;5.76;100.00;97666.56;5135532;27;20096;-74
2022/01/05 01:59:06;;;;;;;12.60;6.28;;;;;;;5.83;100.00;97672.31;5135204;27;20047;-74
2022/01/05 02:01:34;;;;;;;13.15;5.95;;;;;;;5.76;100.00;97679.97;5135538;27;20490;-76
2022/01/05 02:04:01;;;;;;;12.25;6.30;;;;;;;5.81;100.00;97680.47;5135577;27;20039;-75
2022/01/05 02:06:28;;;;;;;11.90;5.35;;;;;;;5.74;100.00;97696.13;5135482;27;20042;-73
2022/01/05 02:08:56;;;;;;;11.50;6.28;;;;;;;5.76;100.00;97704.91;5135524;27;20047;-74
2022/01/05 02:11:25;;;;;;;11.65;6.13;;;;;;;5.68;100.00;97706.41;5135352;27;20099;-73
2022/01/05 02:13:53;;;;;;;11.70;6.15;;;;;;;5.72;100.00;97706.09;5135093;27;20398;-73
2022/01/05 02:16:25;;;;;;;12.23;6.40;;;;;;;5.65;100.00;97718.22;5135293;27;20043;-73
2022/01/05 02:19:01;;;;;;;12.30;6.28;;;;;;;5.68;100.00;97722.47;5135175;27;20069;-79
2022/01/05 02:21:32;;;;;;;12.32;6.80;;;;;;;5.57;100.00;97726.78;5135630;27;20375;-73
2022/01/05 02:24:00;;;;;;;13.25;6.70;;;;;;;5.54;100.00;97726.97;5134688;27;20046;-80
2022/01/05 02:26:28;;;;;;;11.98;6.50;;;;;;;5.59;100.00;97730.19;5134963;27;20047;-75
2022/01/05 02:28:55;;;;;;;12.27;6.60;;;;;;;5.59;100.00;97748.09;5134323;27;20035;-74
2022/01/05 02:31:23;;;;;;;9.98;5.40;;;;;;;5.52;100.00;97744.97;5135010;27;20035;-81
2022/01/05 02:33:51;;;;;;;11.40;6.10;;;;;;;5.42;100.00;97749.25;5135029;27;20047;-79
2022/01/05 02:36:20;;;;;;;11.80;6.05;;;;;;;5.47;100.00;97760.50;5134929;27;20447;-73
2022/01/05 02:38:50;;;;;;;14.68;6.10;;;;;;;5.49;100.00;97769.28;5134865;27;20060;-74
2022/01/05 02:41:18;;;;;;;11.57;6.35;;;;;;;5.48;100.00;97779.13;5134751;27;20043;-75
2022/01/05 02:43:46;;;;;;;11.43;5.82;;;;;;;5.46;100.00;97775.69;5134638;27;20043;-81
2022/01/05 02:46:15;;;;;;;12.00;5.75;;;;;;;5.36;100.00;97778.16;5134937;27;20043;-80
2022/01/05 02:48:43;;;;;;;10.85;5.60;;;;;;;5.39;100.00;97770.91;5134521;27;20039;-83
2022/01/05 02:51:11;;;;;;;12.13;6.07;;;;;;;5.31;100.00;97774.06;5134708;27;20047;-73
2022/01/05 02:53:39;;;;;;;12.63;6.30;;;;;;;5.35;100.00;97775.59;5134660;27;20118;-74
2022/01/05 02:56:08;;;;;;;15.10;8.23;;;;;;;5.32;100.00;97776.66;5134751;27;20043;-76
2022/01/05 02:58:36;;;;;;;22.55;13.10;;;;;;;5.35;100.00;97783.63;5134037;27;20443;-77
2022/01/05 03:01:04;;;;;;;40.30;22.48;;;;;;;5.18;100.00;97782.06;5134348;27;20043;-80
2022/01/05 03:03:32;;;;;;;18.05;9.68;;;;;;;5.05;100.00;97790.06;5134502;27;20491;-76
2022/01/05 03:06:00;;;;;;;13.52;6.60;;;;;;;5.13;100.00;97782.41;5134580;27;20043;-81
2022/01/05 03:08:27;;;;;;;14.35;6.75;;;;;;;4.82;100.00;97787.09;5134457;27;20043;-77
2022/01/05 03:10:55;;;;;;;11.80;5.90;;;;;;;4.76;100.00;97785.66;5134310;27;20493;-73
2022/01/05 03:13:24;;;;;;;10.77;5.40;;;;;;;5.04;100.00;97801.72;5134003;27;20397;-75
2022/01/05 03:15:52;;;;;;;10.85;5.35;;;;;;;4.96;100.00;97807.59;5134346;27;20039;-75
2022/01/05 03:18:19;;;;;;;12.18;5.72;;;;;;;4.76;100.00;97808.91;5134457;27;20067;-78
2022/01/05 03:20:47;;;;;;;11.00;5.53;;;;;;;4.73;100.00;97811.78;5134128;27;20051;-79
2022/01/05 03:23:15;;;;;;;12.48;5.32;;;;;;;4.68;100.00;97816.53;5122319;27;20512;-81
2022/01/05 03:25:43;;;;;;;13.25;5.82;;;;;;;4.54;100.00;97815.63;5113547;27;20039;-83
2022/01/05 03:28:11;;;;;;;12.00;5.82;;;;;;;4.75;100.00;97818.72;5124762;27;20116;-74
2022/01/05 03:30:41;;;;;;;15.25;5.80;;;;;;;4.62;100.00;97818.66;5134099;27;20054;-74
2022/01/05 03:33:10;;;;;;;12.23;5.82;;;;;;;4.56;100.00;97808.34;5134137;27;20043;-73
2022/01/05 03:35:43;;;;;;;11.80;5.50;;;;;;;4.50;100.00;97816.78;5134710;27;20555;-73
2022/01/05 03:38:11;;;;;;;13.18;6.32;;;;;;;4.67;100.00;97825.53;5138224;27;20123;-81
2022/01/05 03:40:39;;;;;;;12.45;6.18;;;;;;;4.56;100.00;97832.44;5137139;27;20069;-75
2022/01/05 03:43:08;;;;;;;12.13;5.97;;;;;;;4.47;100.00;97830.34;5138150;27;20051;-83
2022/01/05 03:45:36;;;;;;;12.52;6.50;;;;;;;4.61;100.00;97824.97;5138144;27;20035;-74
2022/01/05 03:48:08;;;;;;;12.57;6.60;;;;;;;4.71;100.00;97824.41;5137971;27;20053;-75
2022/01/05 03:50:36;;;;;;;14.30;7.45;;;;;;;4.61;100.00;97835.66;5139214;27;20447;-76
2022/01/05 03:53:04;;;;;;;14.77;7.97;;;;;;;4.81;100.00;97833.53;5138043;27;20695;-73
2022/01/05 03:55:33;;;;;;;14.95;7.90;;;;;;;4.83;100.00;97828.94;5137632;27;20489;-84
2022/01/05 03:58:00;;;;;;;15.98;8.55;;;;;;;4.66;100.00;97847.88;5137985;27;20043;-78
2022/01/05 04:00:29;;;;;;;16.77;9.50;;;;;;;4.67;100.00;97852.25;5137943;27;20046;-75
2022/01/05 04:02:57;;;;;;;14.95;7.28;;;;;;;4.66;100.00;97848.75;5137837;27;20066;-85
2022/01/05 04:05:28;;;;;;;14.05;7.70;;;;;;;4.62;100.00;97861.44;5137822;27;20043;-74
2022/01/05 04:07:55;;;;;;;14.73;7.00;;;;;;;4.63;100.00;97868.50;5138935;27;20049;-74
2022/01/05 04:10:23;;;;;;;12.95;6.75;;;;;;;4.56;100.00;97872.53;5137308;27;20096;-74
2022/01/05 04:12:50;;;;;;;16.75;6.85;;;;;;;4.46;100.00;97890.13;5137695;27;20043;-75
2022/01/05 04:15:18;;;;;;;14.32;6.85;;;;;;;4.33;100.00;97890.88;5137560;27;20122;-77
2022/01/05 04:17:46;;;;;;;13.23;6.07;;;;;;;4.28;100.00;97887.63;5137660;27;20039;-81
2022/01/05 04:20:14;;;;;;;12.57;5.88;;;;;;;4.23;100.00;97880.84;5137511;27;20227;-73
2022/01/05 04:22:43;;;;;;;12.93;6.25;;;;;;;4.19;100.00;97877.50;5125786;27;20517;-78
2022/01/05 04:25:12;;;;;;;11.63;5.75;;;;;;;4.23;100.00;97878.19;5116494;28;20066;-74
2022/01/05 04:27:39;;;;;;;11.98;5.60;;;;;;;4.27;100.00;97879.72;5116420;27;20122;-76
2022/01/05 04:30:08;;;;;;;11.18;5.13;;;;;;;4.25;100.00;97877.13;5133521;27;20047;-83
2022/01/05 04:32:36;;;;;;;11.68;5.72;;;;;;;4.29;100.00;97889.38;5137081;27;20047;-75
2022/01/05 04:35:05;;;;;;;13.70;6.65;;;;;;;4.23;100.00;97884.38;5137061;27;20066;-75
2022/01/05 04:37:32;;;;;;;12.07;5.30;;;;;;;4.30;100.00;97884.88;5136376;27;20481;-74
2022/01/05 04:40:02;;;;;;;11.75;5.55;;;;;;;4.24;100.00;97888.75;5136388;27;20047;-82
2022/01/05 04:42:29;;;;;;;10.68;5.32;;;;;;;4.14;100.00;97884.94;5137025;27;20118;-73
2022/01/05 04:44:57;;;;;;;13.98;5.72;;;;;;;4.17;100.00;97884.75;5137099;27;20059;-74
2022/01/05 04:47:25;;;;;;;11.88;6.47;;;;;;;4.08;100.00;97890.66;5136284;27;20054;-79
2022/01/05 04:49:52;;;;;;;12.40;5.85;;;;;;;4.00;100.00;97889.31;5136922;27;20066;-85
2022/01/05 04:52:20;;;;;;;12.90;6.05;;;;;;;4.22;100.00;97897.84;5135797;27;20134;-73
2022/01/05 04:54:48;;;;;;;12.88;6.22;;;;;;;4.35;100.00;97893.44;5136485;27;20405;-73
2022/01/05 04:57:17;;;;;;;13.85;6.25;;;;;;;4.37;100.00;97902.22;5125575;27;20438;-81
2022/01/05 04:59:45;;;;;;;13.80;6.70;;;;;;;4.38;100.00;97890.59;5116342;27;20044;-76
2022/01/05 05:02:14;;;;;;;16.88;6.63;;;;;;;4.43;100.00;97896.50;5115902;27;20054;-73
2022/01/05 05:04:42;;;;;;;17.05;7.15;;;;;;;4.34;100.00;97891.72;5115933;27;20108;-74
2022/01/05 05:07:09;;;;;;;14.25;7.22;;;;;;;4.38;100.00;97892.41;5115739;27;20040;-73
2022/01/05 05:09:37;;;;;;;17.33;8.10;;;;;;;4.44;100.00;97900.06;5115954;27;20137;-75
2022/01/05 05:12:05;;;;;;;19.25;9.05;;;;;;;4.38;100.00;97903.09;5134169;27;20054;-73
2022/01/05 05:14:34;;;;;;;16.65;8.18;;;;;;;4.54;100.00;97909.22;5136397;27;20054;-74
2022/01/05 05:17:02;;;;;;;14.93;7.68;;;;;;;4.68;100.00;97907.47;5136409;27;20073;-73
2022/01/05 05:19:31;;;;;;;14.95;7.45;;;;;;;4.64;100.00;97921.03;5136348;27;20065;-74
2022/01/05 05:21:58;;;;;;;16.38;8.50;;;;;;;4.73;100.00;97908.06;5135926;27;20115;-77
2022/01/05 05:24:26;;;;;;;15.38;8.20;;;;;;;4.69;100.00;97903.84;5136134;27;20107;-73
2022/01/05 05:26:53;;;;;;;15.65;8.27;;;;;;;4.62;100.00;97903.38;5135656;27;20047;-79
2022/01/05 05:29:21;;;;;;;15.85;8.48;;;;;;;4.66;100.00;97901.34;5125736;27;20035;-85
2022/01/05 05:31:50;;;;;;;18.15;8.63;;;;;;;4.54;100.00;97909.22;5135941;27;20054;-74
2022/01/05 05:34:17;;;;;;;16.02;8.88;;;;;;;4.64;100.00;97915.69;5131862;27;20497;-81
2022/01/05 05:36:45;;;;;;;16.40;8.70;;;;;;;4.52;100.00;97913.78;5132027;27;20047;-76
2022/01/05 05:39:12;;;;;;;16.55;8.93;;;;;;;4.50;100.00;97907.69;5132437;27;20455;-75
2022/01/05 05:41:40;;;;;;;17.65;9.02;;;;;;;4.37;100.00;97923.63;5132755;27;20054;-88
2022/01/05 05:44:07;;;;;;;19.33;9.32;;;;;;;4.45;100.00;97926.66;5133166;27;20522;-73
2022/01/05 05:46:35;;;;;;;16.73;9.35;;;;;;;4.38;100.00;97913.81;5133153;27;20065;-76
2022/01/05 05:49:04;;;;;;;19.05;10.70;;;;;;;4.20;100.00;97913.97;5132901;27;20047;-75
2022/01/05 05:51:31;;;;;;;19.63;10.60;;;;;;;4.14;100.00;97909.00;5132105;27;20047;-80
2022/01/05 05:53:59;;;;;;;20.80;10.43;;;;;;;4.27;100.00;97911.78;5132789;27;20452;-76
2022/01/05 05:56:27;;;;;;;23.02;10.77;;;;;;;4.25;100.00;97905.66;5132664;27;20096;-76
2022/01/05 05:58:54;;;;;;;23.92;12.20;;;;;;;4.14;100.00;97903.66;5131466;27;20079;-74
2022/01/05 06:01:22;;;;;;;21.00;11.35;;;;;;;4.09;100.00;97916.44;5132639;27;20047;-80
2022/01/05 06:03:49;;;;;;;21.20;11.50;;;;;;;4.02;100.00;97924.81;5133948;27;20053;-82
2022/01/05 06:06:18;;;;;;;20.52;11.38;;;;;;;4.31;100.00;97930.22;5133006;27;20069;-78
2022/01/05 06:08:46;;;;;;;22.52;12.60;;;;;;;4.38;100.00;97944.03;5132517;27;20066;-77
2022/01/05 06:11:13;;;;;;;24.20;12.63;;;;;;;4.40;100.00;97943.97;5121157;27;20490;-74
2022/01/05 06:13:41;;;;;;;25.05;13.07;;;;;;;4.53;100.00;97942.25;5111646;27;20050;-73
2022/01/05 06:16:08;;;;;;;25.45;12.73;;;;;;;4.61;100.00;97960.50;5113788;27;20551;-76
2022/01/05 06:18:36;;;;;;;24.58;12.93;;;;;;;4.51;100.00;97962.03;5114592;28;20054;-78
2022/01/05 06:21:03;;;;;;;25.38;12.93;;;;;;;4.49;100.00;97964.78;5114022;27;20485;-74
2022/01/05 06:23:32;;;;;;;22.40;12.52;;;;;;;4.47;100.00;97969.38;5114469;27;20460;-75
2022/01/05 06:26:00;;;;;;;24.33;12.80;;;;;;;4.50;100.00;97979.88;5114454;27;20044;-74
2022/01/05 06:28:27;;;;;;;24.65;13.48;;;;;;;4.43;100.00;97984.72;5116787;27;20047;-74
2022/01/05 06:30:55;;;;;;;25.27;12.88;;;;;;;4.44;100.00;97985.59;5134927;27;20058;-74
2022/01/05 06:33:22;;;;;;;25.45;13.73;;;;;;;4.37;100.00;97984.25;5134896;27;20047;-75
2022/01/05 06:35:50;;;;;;;24.95;13.15;;;;;;;4.27;100.00;97990.13;5135889;27;20459;-75
2022/01/05 06:38:17;;;;;;;24.20;13.25;;;;;;;4.40;100.00;97978.72;5134759;27;20036;-77
2022/01/05 06:40:46;;;;;;;25.35;12.27;;;;;;;4.35;100.00;97990.56;5134833;27;20489;-74
2022/01/05 06:43:14;;;;;;;33.08;14.65;;;;;;;4.38;100.00;97991.31;5134851;27;20043;-73
2022/01/05 06:45:42;;;;;;;29.23;13.68;;;;;;;4.31;100.00;97994.38;5134712;27;20054;-73
2022/01/05 06:48:09;;;;;;;23.95;13.02;;;;;;;4.38;100.00;98005.53;5134632;27;20051;-75
2022/01/05 06:50:37;;;;;;;26.23;13.93;;;;;;;4.32;100.00;98006.78;5134232;27;20401;-75
2022/01/05 06:53:04;;;;;;;26.88;13.63;;;;;;;4.40;100.00;98002.78;5134597;27;20054;-79
2022/01/05 06:55:32;;;;;;;26.63;14.30;;;;;;;4.47;100.00;97996.09;5134713;27;20043;-74
2022/01/05 06:58:01;;;;;;;33.75;15.32;;;;;;;4.44;100.00;98007.00;5134708;27;20050;-85
2022/01/05 07:00:31;;;;;;;27.45;15.40;;;;;;;4.39;100.00;98001.06;5134517;27;20043;-73
2022/01/05 07:02:58;;;;;;;47.28;21.23;;;;;;;4.44;100.00;97998.97;5134289;27;20047;-83
2022/01/05 07:05:26;;;;;;;41.25;19.52;;;;;;;4.47;100.00;97999.63;5134178;27;20051;-77
2022/01/05 07:07:54;;;;;;;31.50;17.70;;;;;;;4.35;100.00;97987.00;5134457;27;20475;-80
2022/01/05 07:10:21;;;;;;;28.45;15.32;;;;;;;4.44;100.00;97993.63;5134151;27;20047;-84
2022/01/05 07:12:49;;;;;;;27.48;14.90;;;;;;;4.45;100.00;98003.34;5133170;27;20092;-77
2022/01/05 07:15:18;;;;;;;27.83;15.10;;;;;;;4.52;100.00;98003.84;5130963;27;20489;-82
2022/01/05 07:17:46;;;;;;;29.25;15.73;;;;;;;4.55;100.00;98006.34;5130391;27;20050;-79
2022/01/05 07:20:13;;;;;;;29.73;16.85;;;;;;;4.57;100.00;98007.94;5131410;27;20039;-84
2022/01/05 07:22:41;;;;;;;29.00;16.50;;;;;;;4.60;100.00;98012.25;5131074;27;20051;-79
2022/01/05 07:25:09;;;;;;;30.40;15.93;;;;;;;4.55;100.00;98011.69;5131087;27;20039;-82
2022/01/05 07:27:36;;;;;;;27.15;15.48;;;;;;;4.44;100.00;98017.69;5130740;27;20050;-83
2022/01/05 07:30:05;;;;;;;29.45;16.25;;;;;;;4.40;100.00;98010.81;5130305;27;20096;-81
2022/01/05 07:32:34;;;;;;;27.95;15.40;;;;;;;4.43;100.00;98015.97;5130579;27;20058;-83
2022/01/05 07:35:02;;;;;;;29.73;16.60;;;;;;;4.52;100.00;98014.56;5130848;27;20066;-83
2022/01/05 07:37:30;;;;;;;32.08;16.58;;;;;;;4.47;100.00;98023.69;5129747;28;20051;-84
2022/01/05 07:39:57;;;;;;;30.63;17.80;;;;;;;4.44;100.00;98020.34;5130670;27;20047;-84
2022/01/05 07:42:24;;;;;;;37.67;19.08;;;;;;;4.38;100.00;98020.72;5130464;27;20055;-83
2022/01/05 07:44:53;;;;;;;36.05;19.15;;;;;;;4.44;100.00;98020.34;5131019;27;20398;-86
2022/01/05 07:47:20;;;;;;;31.88;17.67;;;;;;;4.46;100.00;98008.59;5131801;27;20047;-76
2022/01/05 07:49:49;;;;;;;34.22;18.08;;;;;;;4.49;100.00;98020.94;5131149;27;20043;-87
2022/01/05 07:52:17;;;;;;;33.35;18.73;;;;;;;4.59;100.00;98016.75;5132261;27;20050;-85
2022/01/05 07:54:44;;;;;;;32.05;18.70;;;;;;;4.48;100.00;98019.22;5131183;27;20050;-83
2022/01/05 07:57:12;;;;;;;35.88;19.95;;;;;;;4.54;100.00;98020.66;5131557;27;20047;-80
2022/01/05 07:59:39;;;;;;;31.05;18.33;;;;;;;4.63;100.00;98020.94;5131253;27;20043;-78
2022/01/05 08:02:07;;;;;;;33.75;19.05;;;;;;;4.70;100.00;98017.91;5129912;27;20516;-81
2022/01/05 08:04:34;;;;;;;67.18;24.75;;;;;;;4.83;100.00;98016.19;5129778;27;20047;-79
2022/01/05 08:07:03;;;;;;;158.45;40.63;;;;;;;4.76;100.00;98022.88;5130128;27;20069;-85
2022/01/05 08:09:31;;;;;;;233.25;59.35;;;;;;;4.80;100.00;98021.75;5130549;27;20057;-84
2022/01/05 08:11:58;;;;;;;160.98;55.72;;;;;;;4.74;100.00;98012.28;5130656;27;20454;-83
2022/01/05 08:14:26;;;;;;;74.72;31.25;;;;;;;4.69;100.00;98008.16;5129537;27;20051;-74
2022/01/05 08:16:54;;;;;;;59.22;26.67;;;;;;;4.69;100.00;98006.34;5125640;27;20312;-74
2022/01/05 08:19:21;;;;;;;45.15;21.77;;;;;;;4.78;100.00;98012.94;5109108;27;20039;-78
2022/01/05 08:21:49;;;;;;;38.78;19.27;;;;;;;4.66;100.00;98013.69;5118971;27;20047;-83
2022/01/05 08:24:18;;;;;;;28.77;15.80;;;;;;;4.68;100.00;98015.31;5133459;27;20054;-80
2022/01/05 08:26:46;;;;;;;27.27;15.95;;;;;;;4.58;100.00;98023.03;5133329;27;20043;-75
2022/01/05 08:29:14;;;;;;;28.23;16.15;;;;;;;4.59;100.00;98016.75;5129207;27;20439;-84
2022/01/05 08:31:42;;;;;;;29.77;16.20;;;;;;;4.66;100.00;98021.72;5120972;27;20043;-83
2022/01/05 08:34:10;;;;;;;28.27;16.55;;;;;;;4.69;100.00;98027.75;5113374;27;20549;-80
2022/01/05 08:36:38;;;;;;;32.17;16.48;;;;;;;4.66;100.00;98035.97;5120321;27;20039;-73
2022/01/05 08:39:05;;;;;;;29.40;16.73;;;;;;;4.60;100.00;98028.31;5130532;27;20057;-82
2022/01/05 08:41:34;;;;;;;30.98;15.77;;;;;;;4.51;100.00;98024.38;5132643;27;20039;-82
2022/01/05 08:44:02;;;;;;;32.15;17.30;;;;;;;4.68;100.00;98022.47;5121163;27;20047;-78
2022/01/05 08:46:29;;;;;;;31.33;16.48;;;;;;;4.64;100.00;98032.53;5126029;27;20050;-84
2022/01/05 08:48:57;;;;;;;33.05;17.85;;;;;;;4.70;100.00;98025.94;5129482;27;20048;-82
2022/01/05 08:51:25;;;;;;;33.03;17.55;;;;;;;4.72;100.00;98021.34;5124618;27;20738;-73
2022/01/05 08:53:52;;;;;;;30.85;17.50;;;;;;;4.79;100.00;98012.84;5123960;27;20039;-73
2022/01/05 08:56:23;;;;;;;38.38;20.77;;;;;;;4.75;100.00;98014.00;5133560;27;20051;-76
2022/01/05 08:58:52;;;;;;;37.42;19.17;;;;;;;4.83;100.00;98002.81;5134623;27;20043;-84
2022/01/05 09:01:20;;;;;;;28.27;16.50;;;;;;;4.85;100.00;98002.72;5134570;27;20047;-74
2022/01/05 09:03:47;;;;;;;36.80;18.73;;;;;;;4.79;100.00;97994.13;5134353;27;20047;-80
2022/01/05 09:06:15;;;;;;;69.75;39.40;;;;;;;4.83;100.00;97992.13;5132578;27;20058;-76
2022/01/05 09:08:43;;;;;;;49.80;28.63;;;;;;;4.90;100.00;97998.81;5132806;27;20046;-74
2022/01/05 09:11:10;;;;;;;42.75;22.33;;;;;;;5.01;100.00;97992.78;5132890;27;20055;-77
2022/01/05 09:13:38;;;;;;;45.28;23.80;;;;;;;4.97;100.00;97982.34;5132835;27;20688;-75
2022/01/05 09:16:07;;;;;;;56.75;26.83;;;;;;;4.84;100.00;97960.88;5132985;27;20447;-77
2022/01/05 09:18:35;;;;;;;79.25;38.47;;;;;;;4.84;100.00;97968.88;5133851;27;20054;-76
2022/01/05 09:21:03;;;;;;;91.25;41.47;;;;;;;4.93;100.00;97976.38;5132959;27;20054;-74
2022/01/05 09:23:30;;;;;;;65.10;33.95;;;;;;;4.86;100.00;97989.25;5132851;27;20120;-73
2022/01/05 09:25:57;;;;;;;34.13;19.83;;;;;;;4.88;100.00;97981.13;5132655;27;20463;-73
2022/01/05 09:28:25;;;;;;;40.45;23.60;;;;;;;4.87;100.00;97984.75;5131798;27;20058;-72
2022/01/05 09:30:53;;;;;;;42.97;27.58;;;;;;;4.81;100.00;97988.69;5132196;27;20489;-72
2022/01/05 09:33:23;;;;;;;50.17;28.10;;;;;;;4.81;100.00;98007.41;5132588;27;20043;-76
2022/01/05 09:36:01;;;;;;;36.72;20.35;;;;;;;4.82;100.00;98021.63;5133793;27;20062;-74
2022/01/05 09:41:56;;;;;;;39.15;21.35;;;;;;;4.76;100.00;98002.34;5134377;27;20051;-76
2022/01/05 09:44:20;;;;;;;32.70;18.48;;;;;;;5.08;100.00;97985.22;5088655;28;20048;-80
2022/01/05 09:46:57;;;;;;;35.40;18.17;;;;;;;5.04;100.00;97983.69;5089002;28;20060;-80
2022/01/05 09:49:29;;;;;;;29.20;15.93;;;;;;;5.06;100.00;97977.28;5089974;28;20052;-81
2022/01/05 09:51:57;;;;;;;37.25;19.55;;;;;;;5.13;100.00;97984.94;5088775;28;20056;-82
2022/01/05 09:54:26;;;;;;;35.60;17.90;;;;;;;5.14;100.00;97987.53;5073738;28;20617;-84
2022/01/05 09:56:54;;;;;;;31.02;17.73;;;;;;;5.06;100.00;97995.16;5078170;28;20584;-85
2022/01/05 09:59:21;;;;;;;34.25;17.65;;;;;;;5.18;100.00;98002.44;5077875;28;20056;-84
2022/01/05 10:01:49;;;;;;;27.85;15.60;;;;;;;5.32;100.00;98006.03;5081151;28;20048;-80
2022/01/05 10:04:16;;;;;;;34.97;18.65;;;;;;;5.32;100.00;97995.31;5080300;28;20534;-79
2022/01/05 10:06:45;;;;;;;32.78;16.40;;;;;;;5.28;100.00;97999.16;5080346;28;20607;-77
2022/01/05 10:09:14;;;;;;;41.20;21.77;;;;;;;5.29;100.00;97995.53;5080854;28;20044;-75
2022/01/05 10:11:41;;;;;;;39.10;19.85;;;;;;;5.25;100.00;97999.34;5082436;28;20417;-87
2022/01/05 10:14:12;;;;;;;31.17;15.52;;;;;;;5.26;100.00;97999.25;5081810;28;20044;-84
2022/01/05 10:16:40;;;;;;;39.00;19.63;;;;;;;5.24;100.00;98005.66;5082986;28;20116;-84
2022/01/05 10:19:08;;;;;;;40.08;20.60;;;;;;;5.16;100.00;97990.09;5114946;27;20083;-86
2022/01/05 10:21:36;;;;;;;43.15;21.30;;;;;;;5.17;100.00;97987.31;5123351;27;20050;-75
2022/01/05 10:24:06;;;;;;;32.70;16.60;;;;;;;5.10;100.00;97985.13;5123067;27;20123;-77
2022/01/05 10:26:36;;;;;;;32.20;15.82;;;;;;;5.12;100.00;97988.56;5124940;27;20043;-80
2022/01/05 10:29:06;;;;;;;35.28;17.85;;;;;;;5.21;100.00;97985.28;5127528;27;20061;-75
2022/01/05 10:31:36;;;;;;;36.75;17.20;;;;;;;5.15;100.00;97989.25;5123754;27;20047;-74
2022/01/05 10:34:15;;;;;;;39.67;19.00;;;;;;;5.06;100.00;97987.13;5124238;27;20039;-75
2022/01/05 10:36:44;;;;;;;42.22;19.05;;;;;;;5.06;100.00;97990.69;5123337;27;20035;-75
2022/01/05 10:39:13;;;;;;;36.40;18.58;;;;;;;5.07;100.00;97991.53;5122977;27;20482;-75
2022/01/05 10:41:43;;;;;;;38.05;18.98;;;;;;;5.06;100.00;97982.66;5125754;27;20390;-73
2022/01/05 10:44:18;;;;;;;46.65;22.38;;;;;;;5.16;100.00;97984.72;5122933;27;20039;-74
2022/01/05 10:46:48;;;;;;;45.15;19.73;;;;;;;5.13;100.00;97991.16;5123341;27;20413;-75
2022/01/05 10:49:31;;;;;;;38.65;18.77;;;;;;;4.99;100.00;97985.81;5122561;27;20088;-81
2022/01/05 10:52:00;;;;;;;36.72;19.25;;;;;;;5.06;100.00;97979.97;5125012;27;20043;-74
2022/01/05 10:54:30;;;;;;;33.95;17.13;;;;;;;5.05;100.00;97978.25;5122673;27;20099;-83
2022/01/05 10:57:13;;;;;;;31.58;16.05;;;;;;;5.02;100.00;97977.56;5122047;27;20505;-77
2022/01/05 10:59:43;;;;;;;24.20;14.13;;;;;;;5.00;100.00;97980.38;5119961;27;20064;-77
2022/01/05 11:02:24;;;;;;;25.30;14.38;;;;;;;5.10;100.00;97986.00;5123113;27;20031;-82
2022/01/05 11:04:52;;;;;;;25.98;15.07;;;;;;;5.05;100.00;97980.94;5111661;27;20387;-73
2022/01/05 11:07:21;;;;;;;35.60;16.73;;;;;;;5.11;100.00;97993.06;5110966;27;20044;-77
2022/01/05 11:09:58;;;;;;;25.08;14.00;;;;;;;5.06;100.00;97987.13;5129772;27;20539;-82
2022/01/05 11:12:34;;;;;;;23.63;13.63;;;;;;;5.12;100.00;97992.13;5116459;27;20473;-83
2022/01/05 11:15:23;;;;;;;45.80;22.63;;;;;;;5.10;100.00;97996.72;5110730;27;20047;-83
2022/01/05 11:18:09;;;;;;;87.60;36.55;;;;;;;5.20;100.00;97989.81;5111779;27;20413;-83
2022/01/05 11:20:38;;;;;;;74.45;34.33;;;;;;;5.21;100.00;97988.84;5111505;27;20044;-84
2022/01/05 11:23:06;;;;;;;62.08;32.00;;;;;;;5.25;100.00;97991.31;5110523;27;20050;-81
2022/01/05 11:25:37;;;;;;;60.38;29.15;;;;;;;5.29;100.00;97991.00;5110131;27;20415;-74
2022/01/05 11:28:07;;;;;;;59.53;26.52;;;;;;;5.17;100.00;97976.63;5121568;27;20047;-81